createdAt,value
2022-12-01T00:02:02.884Z,99958.94
2022-12-01T00:04:29.442Z,99953.06
2022-12-01T00:06:55.882Z,99952.94
2022-12-01T00:09:40.875Z,99950.28
2022-12-01T00:12:07.600Z,99947.94
2022-12-01T00:14:34.004Z,99942.72
2022-12-01T00:17:00.421Z,99942.84
2022-12-01T00:19:27.451Z,99941.19
2022-12-01T00:21:54.282Z,99948.50
2022-12-01T00:24:23.364Z,99942.03
2022-12-01T00:26:50.176Z,99942.84
2022-12-01T00:29:16.582Z,99944.84
2022-12-01T00:31:43.138Z,99938.28
2022-12-01T00:34:22.495Z,99938.28
2022-12-01T00:36:48.910Z,99951.84
2022-12-01T00:39:15.491Z,99946.03
2022-12-01T00:41:42.069Z,99943.72
2022-12-01T00:44:08.475Z,99946.19
2022-12-01T00:46:34.963Z,99940.72
2022-12-01T00:49:01.675Z,99943.88
2022-12-01T00:51:28.062Z,99939.84
2022-12-01T00:53:54.453Z,99940.72
2022-12-01T00:56:21.130Z,99944.16
2022-12-01T00:58:47.534Z,99948.50
2022-12-01T01:01:14.097Z,99949.63
2022-12-01T01:03:40.627Z,99951.63
2022-12-01T01:06:09.681Z,99952.97
2022-12-01T01:08:36.894Z,99944.97
2022-12-01T01:11:04.154Z,99946.97
2022-12-01T01:13:30.710Z,99947.88
2022-12-01T01:16:01.895Z,99948.63
2022-12-01T01:18:28.518Z,99949.84
2022-12-01T01:21:03.554Z,99957.50
2022-12-01T01:23:29.988Z,99957.97
2022-12-01T01:26:04.008Z,99951.53
2022-12-01T01:28:31.359Z,99960.72
2022-12-01T01:30:58.220Z,99956.38
2022-12-01T01:33:24.775Z,99956.50
2022-12-01T01:35:51.235Z,99958.50
2022-12-01T01:38:17.649Z,99959.19
2022-12-01T01:40:47.526Z,99956.94
2022-12-01T01:43:16.196Z,99963.41
2022-12-01T01:45:42.911Z,99959.41
2022-12-01T01:48:10.706Z,99957.41
2022-12-01T01:50:37.469Z,99957.84
2022-12-01T01:53:12.282Z,99961.16
2022-12-01T01:55:38.767Z,99959.84
2022-12-01T01:58:08.247Z,99963.41
2022-12-01T02:00:35.953Z,99965.16
2022-12-01T02:03:02.517Z,99958.72
2022-12-01T02:05:32.305Z,99963.06
2022-12-01T02:07:59.554Z,99962.94
2022-12-01T02:10:43.524Z,99962.16
2022-12-01T02:13:51.343Z,99955.41
2022-12-01T02:16:24.341Z,99957.16
2022-12-01T02:19:15.246Z,99954.59
2022-12-01T02:22:19.344Z,99962.03
2022-12-01T02:25:07.395Z,99956.94
2022-12-01T02:27:36.920Z,99954.50
2022-12-01T02:30:51.216Z,99957.50
2022-12-01T02:33:27.853Z,99954.84
2022-12-01T02:36:49.691Z,99950.28
2022-12-01T02:39:25.003Z,99949.28
2022-12-01T02:41:56.208Z,99950.50
2022-12-01T02:44:43.774Z,99946.50
2022-12-01T02:47:17.637Z,99942.50
2022-12-01T02:49:47.883Z,99945.94
2022-12-01T02:52:15.207Z,99941.63
2022-12-01T02:54:43.450Z,99950.63
2022-12-01T02:57:14.657Z,99955.53
2022-12-01T02:59:42.461Z,99952.63
2022-12-01T03:02:32.267Z,99943.59
2022-12-01T03:05:14.270Z,99951.16
2022-12-01T03:07:43.786Z,99950.94
2022-12-01T03:10:20.039Z,99949.28
2022-12-01T03:13:19.935Z,99950.50
2022-12-01T03:16:08.203Z,99946.72
2022-12-01T03:18:46.260Z,99948.50
2022-12-01T03:21:26.399Z,99947.75
2022-12-01T03:24:00.042Z,99950.72
2022-12-01T03:26:29.596Z,99948.50
2022-12-01T03:28:59.751Z,99935.63
2022-12-01T03:31:33.275Z,99939.41
2022-12-01T03:34:04.878Z,99938.63
2022-12-01T03:36:39.444Z,99934.38
2022-12-01T03:39:11.130Z,99935.94
2022-12-01T03:41:41.001Z,99935.19
2022-12-01T03:44:15.070Z,99943.47
2022-12-01T03:46:48.255Z,99940.16
2022-12-01T03:49:17.247Z,99942.03
2022-12-01T03:51:50.760Z,99940.72
2022-12-01T03:54:17.153Z,99941.81
2022-12-01T03:56:48.009Z,99937.81
2022-12-01T03:59:16.230Z,99942.28
2022-12-01T04:01:42.876Z,99945.41
2022-12-01T04:04:11.855Z,99940.38
2022-12-01T04:06:40.654Z,99947.38
2022-12-01T04:09:07.057Z,99942.84
2022-12-01T04:11:52.203Z,99936.94
2022-12-01T04:14:18.692Z,99945.59
2022-12-01T04:16:45.057Z,99946.84
2022-12-01T04:19:11.720Z,99952.03
2022-12-01T04:21:38.152Z,99950.28
2022-12-01T04:24:04.729Z,99944.97
2022-12-01T04:26:33.585Z,99951.63
2022-12-01T04:29:01.382Z,99947.41
2022-12-01T04:31:28.466Z,99949.41
2022-12-01T04:33:56.059Z,99952.84
2022-12-01T04:36:23.562Z,99947.53
2022-12-01T04:38:50.042Z,99948.50
2022-12-01T04:41:16.617Z,99942.50
2022-12-01T04:43:43.073Z,99944.16
2022-12-01T04:46:10.410Z,99948.72
2022-12-01T04:48:38.404Z,99950.72
2022-12-01T04:51:06.615Z,99953.81
2022-12-01T04:53:33.332Z,99947.94
2022-12-01T04:56:00.693Z,99947.16
2022-12-01T04:58:31.242Z,99951.41
2022-12-01T05:01:09.193Z,99962.03
2022-12-01T05:03:40.130Z,99956.03
2022-12-01T05:06:14.657Z,99952.03
2022-12-01T05:08:41.238Z,99952.84
2022-12-01T05:11:08.504Z,99955.41
2022-12-01T05:13:37.196Z,99957.28
2022-12-01T05:16:08.069Z,99950.28
2022-12-01T05:18:34.766Z,99951.41
2022-12-01T05:21:01.309Z,99959.50
2022-12-01T05:23:29.969Z,99956.50
2022-12-01T05:25:56.407Z,99957.28
2022-12-01T05:28:24.852Z,99953.19
2022-12-01T05:30:51.501Z,99953.41
2022-12-01T05:33:18.064Z,99952.16
2022-12-01T05:35:44.527Z,99956.03
2022-12-01T05:38:11.094Z,99961.38
2022-12-01T05:40:38.121Z,99956.94
2022-12-01T05:43:04.756Z,99955.41
2022-12-01T05:45:31.197Z,99956.94
2022-12-01T05:47:59.037Z,99960.84
2022-12-01T05:50:27.185Z,99963.41
2022-12-01T05:52:53.592Z,99953.28
2022-12-01T05:55:20.011Z,99959.19
2022-12-01T05:57:46.428Z,99959.84
2022-12-01T06:00:14.188Z,99957.84
2022-12-01T06:02:41.617Z,99954.09
2022-12-01T06:05:09.086Z,99957.06
2022-12-01T06:07:35.762Z,99951.41
2022-12-01T06:10:03.150Z,99954.28
2022-12-01T06:12:29.574Z,99954.72
2022-12-01T06:14:56.019Z,99952.72
2022-12-01T06:17:22.479Z,99956.09
2022-12-01T06:19:49.193Z,99955.53
2022-12-01T06:22:15.814Z,99955.97
2022-12-01T06:24:42.212Z,99957.97
2022-12-01T06:27:08.574Z,99960.09
2022-12-01T06:29:40.557Z,99962.28
2022-12-01T06:32:08.645Z,99967.19
2022-12-01T06:34:35.271Z,99968.84
2022-12-01T06:37:01.772Z,99965.19
2022-12-01T06:39:28.186Z,99959.31
2022-12-01T06:41:54.582Z,99969.19
2022-12-01T06:44:21.011Z,99968.50
2022-12-01T06:46:47.489Z,99975.50
2022-12-01T06:49:13.930Z,99976.75
2022-12-01T06:51:40.354Z,99987.84
2022-12-01T06:54:06.755Z,99981.16
2022-12-01T06:56:34.349Z,99979.63
2022-12-01T06:59:01.178Z,99979.97
2022-12-01T07:01:28.361Z,99985.16
2022-12-01T07:03:55.102Z,99991.63
2022-12-01T07:06:21.809Z,99998.47
2022-12-01T07:08:48.189Z,99996.03
2022-12-01T07:11:16.294Z,99994.50
2022-12-01T07:13:45.328Z,99998.50
2022-12-01T07:16:12.147Z,99995.94
2022-12-01T07:18:38.671Z,100003.38
2022-12-01T07:21:07.153Z,99996.47
2022-12-01T07:23:33.974Z,100003.16
2022-12-01T07:26:10.059Z,99996.47
2022-12-01T07:28:36.525Z,100007.72
2022-12-01T07:31:05.224Z,100003.38
2022-12-01T07:33:32.175Z,100010.34
2022-12-01T07:35:59.235Z,100014.03
2022-12-01T07:38:28.174Z,100017.78
2022-12-01T07:40:54.632Z,100017.59
2022-12-01T07:43:21.137Z,100022.47
2022-12-01T07:45:51.730Z,100013.25
2022-12-01T07:48:18.251Z,100026.47
2022-12-01T07:50:44.679Z,100026.69
2022-12-01T07:53:11.062Z,100027.56
2022-12-01T07:55:37.463Z,100026.91
2022-12-01T07:58:03.948Z,100029.78
2022-12-01T08:00:30.359Z,100029.25
2022-12-01T08:02:56.830Z,100032.66
2022-12-01T08:05:23.254Z,100033.13
2022-12-01T08:07:49.773Z,100035.22
2022-12-01T08:10:16.299Z,100046.22
2022-12-01T08:12:42.719Z,100041.75
2022-12-01T08:15:09.615Z,100041.13
2022-12-01T08:17:36.061Z,100038.44
2022-12-01T08:20:02.554Z,100043.44
2022-12-01T08:22:28.952Z,100042.22
2022-12-01T08:24:55.356Z,100043.22
2022-12-01T08:27:21.801Z,100050.31
2022-12-01T08:29:48.560Z,100047.75
2022-12-01T08:32:16.939Z,100051.13
2022-12-01T08:34:43.403Z,100055.72
2022-12-01T08:37:09.787Z,100054.38
2022-12-01T08:39:36.386Z,100048.16
2022-12-01T08:42:02.919Z,100055.38
2022-12-01T08:44:29.374Z,100059.25
2022-12-01T08:46:55.927Z,100055.81
2022-12-01T08:49:22.951Z,100051.34
2022-12-01T08:51:49.419Z,100056.16
2022-12-01T08:54:15.850Z,100056.94
2022-12-01T08:56:44.017Z,100061.50
2022-12-01T08:59:10.602Z,100065.72
2022-12-01T09:01:51.983Z,100056.78
2022-12-01T09:04:23.342Z,100061.63
2022-12-01T09:06:51.041Z,100069.59
2022-12-01T09:09:20.405Z,100067.84
2022-12-01T09:11:47.193Z,100068.16
2022-12-01T09:14:15.286Z,100072.00
2022-12-01T09:16:42.904Z,100070.81
2022-12-01T09:19:10.862Z,100062.53
2022-12-01T09:21:38.658Z,100070.63
2022-12-01T09:24:06.498Z,100066.06
2022-12-01T09:26:33.734Z,100067.13
2022-12-01T09:29:03.277Z,100071.16
2022-12-01T09:31:29.792Z,100078.22
2022-12-01T09:33:58.959Z,100077.81
2022-12-01T09:36:26.264Z,100076.78
2022-12-01T09:38:52.771Z,100077.81
2022-12-01T09:41:22.932Z,100073.72
2022-12-01T09:43:58.651Z,100079.03
2022-12-01T09:46:37.351Z,100076.78
2022-12-01T09:49:04.520Z,100072.94
2022-12-01T09:51:36.033Z,100079.50
2022-12-01T09:54:03.019Z,100075.13
2022-12-01T09:56:32.571Z,100086.03
2022-12-01T09:59:01.904Z,100078.63
2022-12-01T10:01:37.657Z,100084.72
2022-12-01T10:04:13.817Z,100081.19
2022-12-01T10:07:00.898Z,100085.84
2022-12-01T10:09:39.291Z,100071.84
2022-12-01T10:12:13.746Z,100076.94
2022-12-01T10:14:40.234Z,100075.88
2022-12-01T10:17:21.987Z,100074.97
2022-12-01T10:20:19.545Z,100076.53
2022-12-01T10:23:09.196Z,100070.19
2022-12-01T10:25:50.828Z,100070.31
2022-12-01T10:28:25.539Z,100061.88
2022-12-01T10:30:53.367Z,100067.69
2022-12-01T10:33:24.263Z,100064.56
2022-12-01T10:35:51.227Z,100068.59
2022-12-01T10:38:35.529Z,100062.91
2022-12-01T10:41:04.420Z,100062.22
2022-12-01T10:43:57.586Z,100067.09
2022-12-01T10:46:35.046Z,100053.69
2022-12-01T10:49:11.883Z,100063.88
2022-12-01T10:51:58.191Z,100058.78
2022-12-01T10:54:36.248Z,100061.56
2022-12-01T10:57:03.458Z,100052.59
2022-12-01T10:59:29.761Z,100055.00
2022-12-01T11:01:57.266Z,100055.78
2022-12-01T11:04:46.195Z,100053.69
2022-12-01T11:07:26.211Z,100054.69
2022-12-01T11:10:04.113Z,100053.38
2022-12-01T11:12:31.484Z,100051.25
2022-12-01T11:14:58.032Z,100048.13
2022-12-01T11:17:35.151Z,100050.69
2022-12-01T11:20:35.418Z,100051.22
2022-12-01T11:23:24.338Z,100049.47
2022-12-01T11:26:17.651Z,100052.09
2022-12-01T11:28:56.241Z,100054.28
2022-12-01T11:31:34.840Z,100055.41
2022-12-01T11:34:01.448Z,100046.53
2022-12-01T11:36:38.021Z,100060.72
2022-12-01T11:39:04.959Z,100051.22
2022-12-01T11:41:36.133Z,100041.81
2022-12-01T11:44:06.227Z,100045.88
2022-12-01T11:46:46.250Z,100045.44
2022-12-01T11:49:29.499Z,100043.69
2022-12-01T11:51:56.000Z,100037.03
2022-12-01T11:54:24.531Z,100036.94
2022-12-01T11:57:17.395Z,100030.47
2022-12-01T11:59:38.885Z,100037.00
2022-12-01T12:02:39.744Z,100033.91
2022-12-01T12:05:36.827Z,100033.41
2022-12-01T12:08:10.210Z,100033.66
2022-12-01T12:11:11.257Z,100040.44
2022-12-01T12:13:49.683Z,100031.91
2022-12-01T12:16:50.446Z,100038.75
2022-12-01T12:20:08.890Z,100036.53
2022-12-01T12:22:53.714Z,100031.91
2022-12-01T12:25:32.554Z,100027.34
2022-12-01T12:28:27.750Z,100034.53
2022-12-01T12:31:10.032Z,100026.09
2022-12-01T12:33:51.528Z,100021.00
2022-12-01T12:36:40.030Z,100026.88
2022-12-01T12:39:18.700Z,100026.31
2022-12-01T12:41:46.529Z,100029.19
2022-12-01T12:44:36.583Z,100020.09
2022-12-01T12:47:09.596Z,100019.19
2022-12-01T12:50:09.922Z,100017.00
2022-12-01T12:52:41.068Z,100015.06
2022-12-01T12:55:16.908Z,100017.22
2022-12-01T12:57:54.302Z,100011.75
2022-12-01T13:00:25.310Z,100024.38
2022-12-01T13:02:54.715Z,100020.47
2022-12-01T13:05:36.159Z,100016.50
2022-12-01T13:08:13.047Z,100016.94
2022-12-01T13:10:59.515Z,100011.06
2022-12-01T13:13:29.473Z,100015.97
2022-12-01T13:15:56.741Z,100010.41
2022-12-01T13:18:26.885Z,100016.03
2022-12-01T13:20:54.618Z,100005.84
2022-12-01T13:23:21.937Z,100009.88
2022-12-01T13:25:51.691Z,100007.88
2022-12-01T13:28:24.565Z,100004.78
2022-12-01T13:30:59.631Z,100011.91
2022-12-01T13:33:26.298Z,100009.03
2022-12-01T13:36:22.554Z,100003.22
2022-12-01T13:38:40.555Z,99996.91
2022-12-01T13:41:19.010Z,100001.88
2022-12-01T13:44:20.337Z,100002.00
2022-12-01T13:46:52.832Z,100003.88
2022-12-01T13:49:40.779Z,99998.34
2022-12-01T13:52:22.616Z,100002.31
2022-12-01T13:55:10.726Z,100003.53
2022-12-01T13:57:41.539Z,99998.44
2022-12-01T14:00:23.940Z,99994.09
2022-12-01T14:03:15.315Z,99997.66
2022-12-01T14:05:41.709Z,99994.34
2022-12-01T14:08:27.543Z,99996.59
2022-12-01T14:10:59.957Z,99998.13
2022-12-01T14:13:27.214Z,100000.22
2022-12-01T14:16:02.148Z,99998.88
2022-12-01T14:18:42.858Z,99991.81
2022-12-01T14:21:11.180Z,99988.13
2022-12-01T14:23:41.210Z,99990.78
2022-12-01T14:26:19.057Z,99988.16
2022-12-01T14:29:10.378Z,99985.72
2022-12-01T14:31:37.569Z,99987.63
2022-12-01T14:34:26.496Z,99986.63
2022-12-01T14:36:57.624Z,99978.75
2022-12-01T14:39:39.082Z,99981.00
2022-12-01T14:42:11.697Z,99987.53
2022-12-01T14:44:43.284Z,99986.84
2022-12-01T14:47:20.663Z,99987.31
2022-12-01T14:50:01.247Z,99986.41
2022-12-01T14:52:35.961Z,99982.66
2022-12-01T14:55:12.327Z,99985.97
2022-12-01T14:57:42.925Z,99989.19
2022-12-01T15:00:14.050Z,99988.38
2022-12-01T15:02:41.692Z,99977.50
2022-12-01T15:05:13.969Z,99981.31
2022-12-01T15:07:46.597Z,99985.69
2022-12-01T15:10:17.535Z,99982.53
2022-12-01T15:12:44.055Z,99980.34
2022-12-01T15:15:25.537Z,99975.25
2022-12-01T15:17:55.791Z,99975.91
2022-12-01T15:20:32.759Z,99983.41
2022-12-01T15:23:00.159Z,99987.31
2022-12-01T15:25:35.278Z,99985.09
2022-12-01T15:28:12.316Z,99984.69
2022-12-01T15:30:41.080Z,99976.88
2022-12-01T15:33:15.553Z,99983.34
2022-12-01T15:35:42.497Z,99979.47
2022-12-01T15:38:16.873Z,99976.59
2022-12-01T15:41:27.833Z,99984.56
2022-12-01T15:43:37.954Z,99969.03
2022-12-01T15:46:17.061Z,99983.34
2022-12-01T15:48:44.122Z,99981.13
2022-12-01T15:51:19.673Z,99979.47
2022-12-01T15:53:53.671Z,99986.53
2022-12-01T15:56:28.904Z,99992.34
2022-12-01T15:58:58.635Z,99994.09
2022-12-01T16:01:29.383Z,99984.91
2022-12-01T16:03:56.673Z,99987.25
2022-12-01T16:06:27.168Z,99985.00
2022-12-01T16:08:59.547Z,99986.13
2022-12-01T16:11:26.742Z,99995.19
2022-12-01T16:14:00.338Z,99999.75
2022-12-01T16:16:40.105Z,99995.78
2022-12-01T16:19:09.622Z,100000.88
2022-12-01T16:21:54.011Z,99992.75
2022-12-01T16:24:31.357Z,99993.19
2022-12-01T16:27:00.811Z,99989.88
2022-12-01T16:29:31.498Z,99990.94
2022-12-01T16:32:20.230Z,99995.78
2022-12-01T16:34:47.366Z,99991.91
2022-12-01T16:37:14.821Z,99994.38
2022-12-01T16:39:41.481Z,99994.44
2022-12-01T16:42:14.821Z,99995.03
2022-12-01T16:44:42.618Z,100000.44
2022-12-01T16:47:25.621Z,100003.75
2022-12-01T16:49:52.584Z,100008.09
2022-12-01T16:52:43.627Z,100004.06
2022-12-01T16:55:22.934Z,100008.03
2022-12-01T16:57:49.612Z,100015.25
2022-12-01T17:00:16.451Z,100010.00
2022-12-01T17:02:42.930Z,100007.88
2022-12-01T17:05:10.756Z,100005.09
2022-12-01T17:07:37.202Z,100014.09
2022-12-01T17:10:04.295Z,100012.06
2022-12-01T17:12:30.762Z,100011.41
2022-12-01T17:14:57.177Z,100009.53
2022-12-01T17:17:23.730Z,100010.56
2022-12-01T17:19:52.658Z,100011.03
2022-12-01T17:22:19.036Z,100014.66
2022-12-01T17:24:45.461Z,100024.84
2022-12-01T17:27:11.848Z,100027.66
2022-12-01T17:29:45.727Z,100028.25
2022-12-01T17:32:13.671Z,100032.22
2022-12-01T17:34:40.233Z,100032.94
2022-12-01T17:37:06.615Z,100034.47
2022-12-01T17:39:33.005Z,100039.72
2022-12-01T17:41:59.391Z,100042.41
2022-12-01T17:44:25.806Z,100041.91
2022-12-01T17:46:52.282Z,100056.41
2022-12-01T17:49:18.770Z,100052.34
2022-12-01T17:51:45.182Z,100045.19
2022-12-01T17:54:11.803Z,100052.81
2022-12-01T17:56:38.195Z,100042.16
2022-12-01T17:59:04.577Z,100037.06
2022-12-01T18:01:31.135Z,100026.59
2022-12-01T18:03:58.847Z,100018.41
2022-12-01T18:06:26.704Z,100021.75
2022-12-01T18:08:53.705Z,100009.78
2022-12-01T18:11:20.564Z,99999.06
2022-12-01T18:13:48.810Z,100004.06
2022-12-01T18:16:21.084Z,99997.31
2022-12-01T18:18:47.972Z,99992.38
2022-12-01T18:21:16.724Z,100003.53
2022-12-01T18:23:49.547Z,100014.72
2022-12-01T18:26:16.425Z,100010.53
2022-12-01T18:28:43.498Z,100007.47
2022-12-01T18:31:13.392Z,100006.75
2022-12-01T18:33:41.267Z,100005.28
2022-12-01T18:36:17.088Z,100007.84
2022-12-01T18:38:44.085Z,100012.03
2022-12-01T18:41:10.527Z,100016.59
2022-12-01T18:43:37.275Z,100007.69
2022-12-01T18:46:04.667Z,100006.66
2022-12-01T18:48:31.218Z,100011.50
2022-12-01T18:51:02.837Z,100010.25
2022-12-01T18:53:29.307Z,100002.22
2022-12-01T18:55:55.741Z,100011.38
2022-12-01T18:58:22.138Z,100004.16
2022-12-01T19:00:48.643Z,100009.25
2022-12-01T19:03:15.853Z,100009.25
2022-12-01T19:05:42.265Z,99994.53
2022-12-01T19:08:08.685Z,99998.31
2022-12-01T19:10:35.138Z,99995.50
2022-12-01T19:13:01.601Z,99993.50
2022-12-01T19:15:28.045Z,99990.06
2022-12-01T19:17:54.914Z,99993.72
2022-12-01T19:20:21.401Z,99990.66
2022-12-01T19:22:47.786Z,99985.31
2022-12-01T19:25:14.325Z,99986.84
2022-12-01T19:27:41.037Z,99986.63
2022-12-01T19:30:08.044Z,99982.97
2022-12-01T19:32:34.591Z,99986.84
2022-12-01T19:35:01.055Z,99985.06
2022-12-01T19:37:27.474Z,99992.59
2022-12-01T19:39:53.945Z,99981.53
2022-12-01T19:42:20.347Z,99989.16
2022-12-01T19:44:46.851Z,99986.25
2022-12-01T19:47:15.540Z,99985.31
2022-12-01T19:49:45.543Z,99990.16
2022-12-01T19:52:11.962Z,99983.31
2022-12-01T19:54:38.855Z,99982.53
2022-12-01T19:57:05.448Z,99981.75
2022-12-01T19:59:31.993Z,99988.63
2022-12-01T20:01:58.507Z,99986.84
2022-12-01T20:04:25.094Z,99993.06
2022-12-01T20:06:51.477Z,99993.72
2022-12-01T20:09:17.895Z,99991.19
2022-12-01T20:11:44.409Z,99997.75
2022-12-01T20:14:11.644Z,99993.22
2022-12-01T20:16:38.110Z,99998.41
2022-12-01T20:19:05.589Z,99997.03
2022-12-01T20:21:35.159Z,99995.16
2022-12-01T20:24:04.153Z,99993.97
2022-12-01T20:26:35.950Z,99995.50
2022-12-01T20:29:08.829Z,99992.13
2022-12-01T20:31:36.795Z,99993.41
2022-12-01T20:34:06.896Z,99994.25
2022-12-01T20:36:33.653Z,99985.28
2022-12-01T20:39:00.232Z,99988.22
2022-12-01T20:41:26.613Z,99990.75
2022-12-01T20:43:53.148Z,99989.34
2022-12-01T20:46:22.246Z,99984.91
2022-12-01T20:48:48.670Z,99984.28
2022-12-01T20:51:15.380Z,99984.72
2022-12-01T20:53:54.420Z,99984.72
2022-12-01T20:56:29.146Z,99983.06
2022-12-01T20:58:55.611Z,99981.69
2022-12-01T21:01:22.512Z,99980.66
2022-12-01T21:03:50.774Z,99984.75
2022-12-01T21:06:17.748Z,99987.81
2022-12-01T21:08:45.629Z,99991.34
2022-12-01T21:11:40.456Z,99987.69
2022-12-01T21:14:09.724Z,99986.53
2022-12-01T21:16:37.272Z,99981.84
2022-12-01T21:19:11.260Z,99987.81
2022-12-01T21:21:41.504Z,99986.81
2022-12-01T21:24:07.846Z,99989.91
2022-12-01T21:26:36.480Z,99986.81
2022-12-01T21:29:14.660Z,99995.63
2022-12-01T21:31:41.089Z,99994.97
2022-12-01T21:34:14.249Z,99992.94
2022-12-01T21:36:40.633Z,99998.66
2022-12-01T21:39:19.750Z,99994.47
2022-12-01T21:41:46.274Z,99994.63
2022-12-01T21:44:16.375Z,99991.44
2022-12-01T21:46:43.624Z,99999.72
2022-12-01T21:49:36.662Z,99994.22
2022-12-01T21:52:07.256Z,99996.50
2022-12-01T21:54:34.844Z,100000.06
2022-12-01T21:57:01.309Z,99992.44
2022-12-01T21:59:27.949Z,99996.78
2022-12-01T22:01:56.266Z,99992.19
2022-12-01T22:04:25.063Z,100005.28
2022-12-01T22:06:54.974Z,100002.84
2022-12-01T22:09:29.675Z,99993.31
2022-12-01T22:11:58.155Z,99998.03
2022-12-01T22:14:29.123Z,100001.09
2022-12-01T22:17:00.075Z,99999.81
2022-12-01T22:19:42.292Z,99991.44
2022-12-01T22:22:08.635Z,99997.78
2022-12-01T22:24:49.584Z,99993.22
2022-12-01T22:27:22.093Z,99988.50
2022-12-01T22:29:55.795Z,99992.56
2022-12-01T22:32:50.249Z,99988.16
2022-12-01T22:35:42.242Z,99990.78
2022-12-01T22:38:08.710Z,99988.91
2022-12-01T22:40:39.855Z,99982.03
2022-12-01T22:43:14.016Z,99986.84
2022-12-01T22:45:40.659Z,99983.91
2022-12-01T22:48:28.706Z,99987.75
2022-12-01T22:50:55.420Z,99983.56
2022-12-01T22:53:28.275Z,99977.84
2022-12-01T22:55:56.571Z,99974.78
2022-12-01T22:58:35.318Z,99976.94
2022-12-01T23:01:08.174Z,99974.16
2022-12-01T23:03:34.605Z,99980.53
2022-12-01T23:06:01.535Z,99974.66
2022-12-01T23:08:27.993Z,99973.38
2022-12-01T23:10:54.371Z,99973.13
2022-12-01T23:13:22.909Z,99970.94
2022-12-01T23:15:51.302Z,99971.59
2022-12-01T23:18:22.626Z,99969.44
2022-12-01T23:20:51.606Z,99967.25
2022-12-01T23:23:25.999Z,99965.50
2022-12-01T23:25:52.369Z,99966.75
2022-12-01T23:28:19.128Z,99965.50
2022-12-01T23:30:46.708Z,99954.19
2022-12-01T23:33:14.823Z,99954.94
2022-12-01T23:35:49.031Z,99959.38
2022-12-01T23:38:36.263Z,99952.78
2022-12-01T23:41:06.225Z,99951.00
2022-12-01T23:43:39.938Z,99947.19
2022-12-01T23:46:14.673Z,99939.56
2022-12-01T23:48:43.499Z,99942.34
2022-12-01T23:51:16.943Z,99939.41
2022-12-01T23:53:43.315Z,99924.56
2022-12-01T23:56:16.968Z,99929.50
2022-12-01T23:58:43.758Z,99927.59
